sensor_id;sensor_type;location;lat;lon;timestamp;temperature;humidity
55634;DHT22;41504;53.162;6.788;2023-06-14T00:01:52;19.10;50.20
55634;DHT22;41504;53.162;6.788;2023-06-14T00:04:17;19.00;50.30
55634;DHT22;41504;53.162;6.788;2023-06-14T00:06:44;19.00;50.50
55634;DHT22;41504;53.162;6.788;2023-06-14T00:09:11;18.90;50.60
55634;DHT22;41504;53.162;6.788;2023-06-14T00:11:43;18.90;50.90
55634;DHT22;41504;53.162;6.788;2023-06-14T00:14:08;18.80;50.80
55634;DHT22;41504;53.162;6.788;2023-06-14T00:16:34;18.80;51.10
55634;DHT22;41504;53.162;6.788;2023-06-14T00:19:01;18.80;51.40
55634;DHT22;41504;53.162;6.788;2023-06-14T00:21:29;18.70;51.50
55634;DHT22;41504;53.162;6.788;2023-06-14T00:23:56;18.70;51.70
55634;DHT22;41504;53.162;6.788;2023-06-14T00:26:22;18.70;51.70
55634;DHT22;41504;53.162;6.788;2023-06-14T00:28:48;18.60;51.90
55634;DHT22;41504;53.162;6.788;2023-06-14T00:31:14;18.60;52.10
55634;DHT22;41504;53.162;6.788;2023-06-14T00:33:40;18.50;52.30
55634;DHT22;41504;53.162;6.788;2023-06-14T00:36:06;18.50;52.60
55634;DHT22;41504;53.162;6.788;2023-06-14T00:38:32;18.40;52.80
55634;DHT22;41504;53.162;6.788;2023-06-14T00:40:57;18.40;53.50
55634;DHT22;41504;53.162;6.788;2023-06-14T00:43:23;18.30;53.20
55634;DHT22;41504;53.162;6.788;2023-06-14T00:45:49;18.30;53.20
55634;DHT22;41504;53.162;6.788;2023-06-14T00:48:17;18.20;53.50
55634;DHT22;41504;53.162;6.788;2023-06-14T00:50:44;18.20;53.50
55634;DHT22;41504;53.162;6.788;2023-06-14T00:53:15;18.20;53.70
55634;DHT22;41504;53.162;6.788;2023-06-14T00:55:43;18.10;53.90
55634;DHT22;41504;53.162;6.788;2023-06-14T00:58:10;18.10;54.00
55634;DHT22;41504;53.162;6.788;2023-06-14T01:00:36;18.10;54.20
55634;DHT22;41504;53.162;6.788;2023-06-14T01:03:01;18.00;54.30
55634;DHT22;41504;53.162;6.788;2023-06-14T01:05:28;18.00;54.60
55634;DHT22;41504;53.162;6.788;2023-06-14T01:10:56;17.90;55.50
55634;DHT22;41504;53.162;6.788;2023-06-14T01:13:33;17.90;55.40
55634;DHT22;41504;53.162;6.788;2023-06-14T01:15:59;17.80;55.50
55634;DHT22;41504;53.162;6.788;2023-06-14T01:18:28;17.80;55.50
55634;DHT22;41504;53.162;6.788;2023-06-14T01:20:55;17.80;55.70
55634;DHT22;41504;53.162;6.788;2023-06-14T01:23:22;17.70;55.70
55634;DHT22;41504;53.162;6.788;2023-06-14T01:25:49;17.70;55.90
55634;DHT22;41504;53.162;6.788;2023-06-14T01:28:21;17.70;56.10
55634;DHT22;41504;53.162;6.788;2023-06-14T01:30:52;17.70;56.10
55634;DHT22;41504;53.162;6.788;2023-06-14T01:33:24;17.70;56.30
55634;DHT22;41504;53.162;6.788;2023-06-14T01:35:52;17.60;57.50
55634;DHT22;41504;53.162;6.788;2023-06-14T01:38:24;17.60;56.40
55634;DHT22;41504;53.162;6.788;2023-06-14T01:40:52;17.60;56.80
55634;DHT22;41504;53.162;6.788;2023-06-14T01:43:20;17.60;56.90
55634;DHT22;41504;53.162;6.788;2023-06-14T01:45:47;17.50;57.10
55634;DHT22;41504;53.162;6.788;2023-06-14T01:48:14;17.50;57.40
55634;DHT22;41504;53.162;6.788;2023-06-14T01:50:40;17.40;57.40
55634;DHT22;41504;53.162;6.788;2023-06-14T01:53:10;17.40;57.80
55634;DHT22;41504;53.162;6.788;2023-06-14T01:55:36;17.40;57.90
55634;DHT22;41504;53.162;6.788;2023-06-14T01:58:09;17.30;58.00
55634;DHT22;41504;53.162;6.788;2023-06-14T02:00:35;17.30;58.10
55634;DHT22;41504;53.162;6.788;2023-06-14T02:03:01;17.20;58.40
55634;DHT22;41504;53.162;6.788;2023-06-14T02:05:30;17.20;58.60
55634;DHT22;41504;53.162;6.788;2023-06-14T02:07:56;17.20;58.70
55634;DHT22;41504;53.162;6.788;2023-06-14T02:10:22;17.10;58.70
55634;DHT22;41504;53.162;6.788;2023-06-14T02:12:48;17.10;59.10
55634;DHT22;41504;53.162;6.788;2023-06-14T02:15:14;17.00;59.20
55634;DHT22;41504;53.162;6.788;2023-06-14T02:17:46;17.00;59.50
55634;DHT22;41504;53.162;6.788;2023-06-14T02:20:17;17.00;60.10
55634;DHT22;41504;53.162;6.788;2023-06-14T02:22:44;16.90;59.90
55634;DHT22;41504;53.162;6.788;2023-06-14T02:25:10;16.80;60.10
55634;DHT22;41504;53.162;6.788;2023-06-14T02:27:36;16.90;60.40
55634;DHT22;41504;53.162;6.788;2023-06-14T02:30:02;16.80;60.50
55634;DHT22;41504;53.162;6.788;2023-06-14T02:32:28;16.80;60.60
55634;DHT22;41504;53.162;6.788;2023-06-14T02:34:54;16.80;60.70
55634;DHT22;41504;53.162;6.788;2023-06-14T02:37:20;16.80;60.90
55634;DHT22;41504;53.162;6.788;2023-06-14T02:39:45;16.70;61.10
55634;DHT22;41504;53.162;6.788;2023-06-14T02:42:11;16.70;61.20
55634;DHT22;41504;53.162;6.788;2023-06-14T02:44:37;16.70;61.40
55634;DHT22;41504;53.162;6.788;2023-06-14T02:47:03;16.60;61.40
55634;DHT22;41504;53.162;6.788;2023-06-14T02:49:30;16.60;61.50
55634;DHT22;41504;53.162;6.788;2023-06-14T02:51:56;16.60;61.80
55634;DHT22;41504;53.162;6.788;2023-06-14T02:54:22;16.60;61.90
55634;DHT22;41504;53.162;6.788;2023-06-14T02:56:48;16.50;62.10
55634;DHT22;41504;53.162;6.788;2023-06-14T02:59:13;16.50;62.00
55634;DHT22;41504;53.162;6.788;2023-06-14T03:01:43;16.50;62.10
55634;DHT22;41504;53.162;6.788;2023-06-14T03:04:09;16.40;62.10
55634;DHT22;41504;53.162;6.788;2023-06-14T03:06:35;16.40;62.40
55634;DHT22;41504;53.162;6.788;2023-06-14T03:09:02;16.40;62.60
55634;DHT22;41504;53.162;6.788;2023-06-14T03:11:30;16.40;62.70
55634;DHT22;41504;53.162;6.788;2023-06-14T03:13:56;16.30;62.90
55634;DHT22;41504;53.162;6.788;2023-06-14T03:16:22;16.30;63.00
55634;DHT22;41504;53.162;6.788;2023-06-14T03:18:52;16.30;63.20
55634;DHT22;41504;53.162;6.788;2023-06-14T03:21:21;16.30;63.30
55634;DHT22;41504;53.162;6.788;2023-06-14T03:23:50;16.30;63.50
55634;DHT22;41504;53.162;6.788;2023-06-14T03:26:16;16.20;63.50
55634;DHT22;41504;53.162;6.788;2023-06-14T03:28:45;16.20;63.60
55634;DHT22;41504;53.162;6.788;2023-06-14T03:31:12;16.10;63.80
55634;DHT22;41504;53.162;6.788;2023-06-14T03:33:38;16.20;63.80
55634;DHT22;41504;53.162;6.788;2023-06-14T03:36:05;16.10;63.90
55634;DHT22;41504;53.162;6.788;2023-06-14T03:38:31;16.10;64.10
55634;DHT22;41504;53.162;6.788;2023-06-14T03:40:56;16.10;64.10
55634;DHT22;41504;53.162;6.788;2023-06-14T03:43:22;16.10;64.30
55634;DHT22;41504;53.162;6.788;2023-06-14T03:45:48;16.10;64.30
55634;DHT22;41504;53.162;6.788;2023-06-14T03:48:14;16.10;64.60
55634;DHT22;41504;53.162;6.788;2023-06-14T03:50:39;16.10;64.60
55634;DHT22;41504;53.162;6.788;2023-06-14T03:53:06;16.10;64.70
55634;DHT22;41504;53.162;6.788;2023-06-14T03:55:32;16.00;64.90
55634;DHT22;41504;53.162;6.788;2023-06-14T03:57:58;16.00;65.00
55634;DHT22;41504;53.162;6.788;2023-06-14T04:00:24;16.00;65.30
55634;DHT22;41504;53.162;6.788;2023-06-14T04:02:50;16.00;65.80
55634;DHT22;41504;53.162;6.788;2023-06-14T04:05:16;16.00;65.30
55634;DHT22;41504;53.162;6.788;2023-06-14T04:07:47;16.00;65.30
55634;DHT22;41504;53.162;6.788;2023-06-14T04:10:15;16.00;65.50
55634;DHT22;41504;53.162;6.788;2023-06-14T04:12:41;16.00;65.60
55634;DHT22;41504;53.162;6.788;2023-06-14T04:15:08;16.10;65.60
55634;DHT22;41504;53.162;6.788;2023-06-14T04:17:37;16.00;65.60
55634;DHT22;41504;53.162;6.788;2023-06-14T04:20:03;16.10;65.60
55634;DHT22;41504;53.162;6.788;2023-06-14T04:22:32;16.10;65.70
55634;DHT22;41504;53.162;6.788;2023-06-14T04:24:58;16.10;65.80
55634;DHT22;41504;53.162;6.788;2023-06-14T04:27:26;16.10;65.80
55634;DHT22;41504;53.162;6.788;2023-06-14T04:29:52;16.10;65.90
55634;DHT22;41504;53.162;6.788;2023-06-14T04:32:26;16.10;66.00
55634;DHT22;41504;53.162;6.788;2023-06-14T04:34:55;16.10;66.10
55634;DHT22;41504;53.162;6.788;2023-06-14T04:37:22;16.20;66.10
55634;DHT22;41504;53.162;6.788;2023-06-14T04:39:48;16.20;66.30
55634;DHT22;41504;53.162;6.788;2023-06-14T04:42:14;16.20;66.30
55634;DHT22;41504;53.162;6.788;2023-06-14T04:44:42;16.20;66.50
55634;DHT22;41504;53.162;6.788;2023-06-14T04:47:09;16.30;66.60
55634;DHT22;41504;53.162;6.788;2023-06-14T04:49:35;16.40;66.50
55634;DHT22;41504;53.162;6.788;2023-06-14T04:52:01;16.50;66.40
55634;DHT22;41504;53.162;6.788;2023-06-14T04:54:27;16.60;66.20
55634;DHT22;41504;53.162;6.788;2023-06-14T04:56:53;16.70;66.20
55634;DHT22;41504;53.162;6.788;2023-06-14T04:59:21;16.80;65.90
55634;DHT22;41504;53.162;6.788;2023-06-14T05:01:49;16.90;65.80
55634;DHT22;41504;53.162;6.788;2023-06-14T05:04:16;17.00;65.60
55634;DHT22;41504;53.162;6.788;2023-06-14T05:06:42;17.10;65.70
55634;DHT22;41504;53.162;6.788;2023-06-14T05:09:11;17.20;65.50
55634;DHT22;41504;53.162;6.788;2023-06-14T05:11:37;17.30;65.30
55634;DHT22;41504;53.162;6.788;2023-06-14T05:14:03;17.40;65.20
55634;DHT22;41504;53.162;6.788;2023-06-14T05:16:28;17.50;65.10
55634;DHT22;41504;53.162;6.788;2023-06-14T05:18:55;17.60;65.00
55634;DHT22;41504;53.162;6.788;2023-06-14T05:21:21;17.60;64.80
55634;DHT22;41504;53.162;6.788;2023-06-14T05:23:47;17.70;64.70
55634;DHT22;41504;53.162;6.788;2023-06-14T05:26:13;17.80;64.50
55634;DHT22;41504;53.162;6.788;2023-06-14T05:28:38;17.90;64.30
55634;DHT22;41504;53.162;6.788;2023-06-14T05:31:04;18.00;64.10
55634;DHT22;41504;53.162;6.788;2023-06-14T05:33:30;18.10;63.90
55634;DHT22;41504;53.162;6.788;2023-06-14T05:35:56;18.20;63.70
55634;DHT22;41504;53.162;6.788;2023-06-14T05:38:22;18.30;63.40
55634;DHT22;41504;53.162;6.788;2023-06-14T05:40:47;18.40;63.30
55634;DHT22;41504;53.162;6.788;2023-06-14T05:43:13;18.50;63.00
55634;DHT22;41504;53.162;6.788;2023-06-14T05:45:39;18.50;62.50
55634;DHT22;41504;53.162;6.788;2023-06-14T05:48:05;18.50;62.30
55634;DHT22;41504;53.162;6.788;2023-06-14T05:50:30;18.50;62.20
55634;DHT22;41504;53.162;6.788;2023-06-14T05:52:56;18.50;62.00
55634;DHT22;41504;53.162;6.788;2023-06-14T05:55:22;18.60;61.80
55634;DHT22;41504;53.162;6.788;2023-06-14T05:57:48;18.70;61.70
55634;DHT22;41504;53.162;6.788;2023-06-14T06:00:14;18.70;61.30
55634;DHT22;41504;53.162;6.788;2023-06-14T06:02:44;18.80;61.40
55634;DHT22;41504;53.162;6.788;2023-06-14T06:05:11;18.80;61.30
55634;DHT22;41504;53.162;6.788;2023-06-14T06:07:37;18.80;61.30
55634;DHT22;41504;53.162;6.788;2023-06-14T06:10:03;18.90;61.30
55634;DHT22;41504;53.162;6.788;2023-06-14T06:12:30;18.90;61.00
55634;DHT22;41504;53.162;6.788;2023-06-14T06:14:56;18.90;60.70
55634;DHT22;41504;53.162;6.788;2023-06-14T06:17:22;19.00;60.80
55634;DHT22;41504;53.162;6.788;2023-06-14T06:19:47;19.00;60.90
55634;DHT22;41504;53.162;6.788;2023-06-14T06:22:13;19.00;60.70
55634;DHT22;41504;53.162;6.788;2023-06-14T06:24:39;19.10;60.20
55634;DHT22;41504;53.162;6.788;2023-06-14T06:27:05;19.10;60.30
55634;DHT22;41504;53.162;6.788;2023-06-14T06:29:33;19.20;60.20
55634;DHT22;41504;53.162;6.788;2023-06-14T06:31:59;19.30;60.00
55634;DHT22;41504;53.162;6.788;2023-06-14T06:34:25;19.30;59.80
55634;DHT22;41504;53.162;6.788;2023-06-14T06:36:51;19.40;59.90
55634;DHT22;41504;53.162;6.788;2023-06-14T06:39:16;19.50;59.90
55634;DHT22;41504;53.162;6.788;2023-06-14T06:41:42;19.50;59.70
55634;DHT22;41504;53.162;6.788;2023-06-14T06:44:08;19.60;59.30
55634;DHT22;41504;53.162;6.788;2023-06-14T06:46:36;19.60;59.20
55634;DHT22;41504;53.162;6.788;2023-06-14T06:49:08;19.70;59.10
55634;DHT22;41504;53.162;6.788;2023-06-14T06:51:35;19.70;58.80
55634;DHT22;41504;53.162;6.788;2023-06-14T06:54:04;19.80;58.70
55634;DHT22;41504;53.162;6.788;2023-06-14T06:56:31;19.90;58.70
55634;DHT22;41504;53.162;6.788;2023-06-14T06:58:57;20.00;58.40
55634;DHT22;41504;53.162;6.788;2023-06-14T07:01:22;20.10;58.20
55634;DHT22;41504;53.162;6.788;2023-06-14T07:03:49;20.10;58.00
55634;DHT22;41504;53.162;6.788;2023-06-14T07:06:15;20.20;58.10
55634;DHT22;41504;53.162;6.788;2023-06-14T07:08:44;20.30;57.80
55634;DHT22;41504;53.162;6.788;2023-06-14T07:11:10;20.30;57.40
55634;DHT22;41504;53.162;6.788;2023-06-14T07:13:35;20.40;57.20
55634;DHT22;41504;53.162;6.788;2023-06-14T07:16:04;20.40;56.90
55634;DHT22;41504;53.162;6.788;2023-06-14T07:18:29;20.50;56.80
55634;DHT22;41504;53.162;6.788;2023-06-14T07:20:56;20.50;56.60
55634;DHT22;41504;53.162;6.788;2023-06-14T07:23:23;20.60;56.50
55634;DHT22;41504;53.162;6.788;2023-06-14T07:25:49;20.70;56.20
55634;DHT22;41504;53.162;6.788;2023-06-14T07:28:17;20.70;56.40
55634;DHT22;41504;53.162;6.788;2023-06-14T07:30:43;20.80;56.00
55634;DHT22;41504;53.162;6.788;2023-06-14T07:33:09;20.90;55.60
55634;DHT22;41504;53.162;6.788;2023-06-14T07:35:35;20.90;55.60
55634;DHT22;41504;53.162;6.788;2023-06-14T07:38:01;20.90;55.20
55634;DHT22;41504;53.162;6.788;2023-06-14T07:40:27;21.00;55.30
55634;DHT22;41504;53.162;6.788;2023-06-14T07:42:53;21.10;54.80
55634;DHT22;41504;53.162;6.788;2023-06-14T07:45:20;21.10;54.80
55634;DHT22;41504;53.162;6.788;2023-06-14T07:47:46;21.20;54.90
55634;DHT22;41504;53.162;6.788;2023-06-14T07:50:12;21.20;54.60
55634;DHT22;41504;53.162;6.788;2023-06-14T07:52:42;21.30;54.30
55634;DHT22;41504;53.162;6.788;2023-06-14T07:55:07;21.30;53.50
55634;DHT22;41504;53.162;6.788;2023-06-14T07:57:36;21.40;53.60
55634;DHT22;41504;53.162;6.788;2023-06-14T08:00:05;21.40;53.10
55634;DHT22;41504;53.162;6.788;2023-06-14T08:02:32;21.50;53.60
55634;DHT22;41504;53.162;6.788;2023-06-14T08:04:57;21.50;53.60
55634;DHT22;41504;53.162;6.788;2023-06-14T08:07:25;21.60;53.40
55634;DHT22;41504;53.162;6.788;2023-06-14T08:09:51;21.70;53.30
55634;DHT22;41504;53.162;6.788;2023-06-14T08:12:17;21.70;52.60
55634;DHT22;41504;53.162;6.788;2023-06-14T08:14:43;21.80;52.60
55634;DHT22;41504;53.162;6.788;2023-06-14T08:17:11;21.80;52.50
55634;DHT22;41504;53.162;6.788;2023-06-14T08:19:37;21.90;52.30
55634;DHT22;41504;53.162;6.788;2023-06-14T08:22:03;21.90;52.20
55634;DHT22;41504;53.162;6.788;2023-06-14T08:24:29;22.00;51.80
55634;DHT22;41504;53.162;6.788;2023-06-14T08:26:55;22.00;51.90
55634;DHT22;41504;53.162;6.788;2023-06-14T08:29:22;22.00;51.90
55634;DHT22;41504;53.162;6.788;2023-06-14T08:31:48;22.10;51.60
55634;DHT22;41504;53.162;6.788;2023-06-14T08:34:14;22.10;51.70
55634;DHT22;41504;53.162;6.788;2023-06-14T08:36:39;22.10;51.20
55634;DHT22;41504;53.162;6.788;2023-06-14T08:39:05;22.20;51.30
55634;DHT22;41504;53.162;6.788;2023-06-14T08:41:31;22.20;51.30
55634;DHT22;41504;53.162;6.788;2023-06-14T08:43:58;22.30;51.10
55634;DHT22;41504;53.162;6.788;2023-06-14T08:46:26;22.40;50.90
55634;DHT22;41504;53.162;6.788;2023-06-14T08:48:55;22.40;50.70
55634;DHT22;41504;53.162;6.788;2023-06-14T08:51:25;22.40;50.90
55634;DHT22;41504;53.162;6.788;2023-06-14T08:53:53;22.50;50.50
55634;DHT22;41504;53.162;6.788;2023-06-14T08:56:25;22.50;50.20
55634;DHT22;41504;53.162;6.788;2023-06-14T08:58:51;22.50;49.90
55634;DHT22;41504;53.162;6.788;2023-06-14T09:01:18;22.50;50.20
55634;DHT22;41504;53.162;6.788;2023-06-14T09:03:50;22.60;50.10
55634;DHT22;41504;53.162;6.788;2023-06-14T09:06:17;22.60;49.90
55634;DHT22;41504;53.162;6.788;2023-06-14T09:08:45;22.60;49.90
55634;DHT22;41504;53.162;6.788;2023-06-14T09:11:16;22.60;49.90
55634;DHT22;41504;53.162;6.788;2023-06-14T09:13:50;22.70;50.30
55634;DHT22;41504;53.162;6.788;2023-06-14T09:16:16;22.70;50.50
55634;DHT22;41504;53.162;6.788;2023-06-14T09:18:46;22.80;49.80
55634;DHT22;41504;53.162;6.788;2023-06-14T09:21:15;22.90;49.60
55634;DHT22;41504;53.162;6.788;2023-06-14T09:23:43;22.90;49.90
55634;DHT22;41504;53.162;6.788;2023-06-14T09:28:46;23.10;49.60
55634;DHT22;41504;53.162;6.788;2023-06-14T09:31:16;23.10;49.20
55634;DHT22;41504;53.162;6.788;2023-06-14T09:33:45;23.20;49.10
55634;DHT22;41504;53.162;6.788;2023-06-14T09:36:24;23.20;48.70
55634;DHT22;41504;53.162;6.788;2023-06-14T09:38:54;23.30;48.70
55634;DHT22;41504;53.162;6.788;2023-06-14T09:41:30;23.30;48.70
55634;DHT22;41504;53.162;6.788;2023-06-14T09:43:58;23.40;48.60
55634;DHT22;41504;53.162;6.788;2023-06-14T09:46:27;23.40;48.30
55634;DHT22;41504;53.162;6.788;2023-06-14T09:48:53;23.50;48.10
55634;DHT22;41504;53.162;6.788;2023-06-14T09:51:22;23.60;47.70
55634;DHT22;41504;53.162;6.788;2023-06-14T09:53:50;23.60;47.70
55634;DHT22;41504;53.162;6.788;2023-06-14T09:56:23;23.70;47.80
55634;DHT22;41504;53.162;6.788;2023-06-14T09:58:54;23.70;47.80
55634;DHT22;41504;53.162;6.788;2023-06-14T10:01:22;23.80;47.90
55634;DHT22;41504;53.162;6.788;2023-06-14T10:03:55;23.90;47.50
55634;DHT22;41504;53.162;6.788;2023-06-14T10:06:22;23.90;47.10
55634;DHT22;41504;53.162;6.788;2023-06-14T10:08:52;24.00;46.80
55634;DHT22;41504;53.162;6.788;2023-06-14T10:11:18;24.00;46.60
55634;DHT22;41504;53.162;6.788;2023-06-14T10:13:44;24.00;46.40
55634;DHT22;41504;53.162;6.788;2023-06-14T10:16:17;24.00;46.40
55634;DHT22;41504;53.162;6.788;2023-06-14T10:18:58;24.10;46.30
55634;DHT22;41504;53.162;6.788;2023-06-14T10:24:42;24.30;45.80
55634;DHT22;41504;53.162;6.788;2023-06-14T10:27:26;24.40;44.50
55634;DHT22;41504;53.162;6.788;2023-06-14T10:32:18;24.40;45.00
55634;DHT22;41504;53.162;6.788;2023-06-14T10:34:45;24.40;45.00
55634;DHT22;41504;53.162;6.788;2023-06-14T10:37:13;24.50;44.90
55634;DHT22;41504;53.162;6.788;2023-06-14T10:39:44;24.50;44.40
55634;DHT22;41504;53.162;6.788;2023-06-14T10:42:11;24.60;44.50
55634;DHT22;41504;53.162;6.788;2023-06-14T10:44:38;24.60;44.50
55634;DHT22;41504;53.162;6.788;2023-06-14T10:50:09;24.80;44.60
55634;DHT22;41504;53.162;6.788;2023-06-14T10:52:41;24.90;44.60
55634;DHT22;41504;53.162;6.788;2023-06-14T10:55:13;24.90;44.10
55634;DHT22;41504;53.162;6.788;2023-06-14T10:57:48;24.90;43.80
55634;DHT22;41504;53.162;6.788;2023-06-14T11:00:18;25.00;43.50
55634;DHT22;41504;53.162;6.788;2023-06-14T11:10:49;25.20;43.90
55634;DHT22;41504;53.162;6.788;2023-06-14T11:13:18;25.30;43.30
55634;DHT22;41504;53.162;6.788;2023-06-14T11:15:46;25.50;42.30
55634;DHT22;41504;53.162;6.788;2023-06-14T11:18:13;25.40;42.00
55634;DHT22;41504;53.162;6.788;2023-06-14T11:20:40;25.40;41.90
55634;DHT22;41504;53.162;6.788;2023-06-14T11:23:06;25.30;41.80
55634;DHT22;41504;53.162;6.788;2023-06-14T11:25:32;25.30;41.90
55634;DHT22;41504;53.162;6.788;2023-06-14T11:27:58;25.30;41.90
55634;DHT22;41504;53.162;6.788;2023-06-14T11:30:26;25.30;41.70
55634;DHT22;41504;53.162;6.788;2023-06-14T11:32:53;25.10;41.70
55634;DHT22;41504;53.162;6.788;2023-06-14T11:35:22;25.10;42.20
55634;DHT22;41504;53.162;6.788;2023-06-14T11:37:55;25.20;42.20
55634;DHT22;41504;53.162;6.788;2023-06-14T11:40:27;25.20;42.00
55634;DHT22;41504;53.162;6.788;2023-06-14T11:43:00;25.30;41.90
55634;DHT22;41504;53.162;6.788;2023-06-14T11:45:27;25.50;41.80
55634;DHT22;41504;53.162;6.788;2023-06-14T11:47:55;25.50;41.70
55634;DHT22;41504;53.162;6.788;2023-06-14T11:50:24;25.60;41.50
55634;DHT22;41504;53.162;6.788;2023-06-14T11:52:58;25.70;41.10
55634;DHT22;41504;53.162;6.788;2023-06-14T11:55:42;25.80;41.10
55634;DHT22;41504;53.162;6.788;2023-06-14T11:58:10;25.90;40.90
55634;DHT22;41504;53.162;6.788;2023-06-14T12:00:40;26.00;40.50
55634;DHT22;41504;53.162;6.788;2023-06-14T12:03:07;26.00;41.20
55634;DHT22;41504;53.162;6.788;2023-06-14T12:05:33;26.10;40.80
55634;DHT22;41504;53.162;6.788;2023-06-14T12:08:01;26.20;40.80
55634;DHT22;41504;53.162;6.788;2023-06-14T12:10:39;26.20;40.40
55634;DHT22;41504;53.162;6.788;2023-06-14T12:13:06;26.20;40.30
55634;DHT22;41504;53.162;6.788;2023-06-14T12:15:32;26.20;40.30
55634;DHT22;41504;53.162;6.788;2023-06-14T12:17:58;26.30;40.40
55634;DHT22;41504;53.162;6.788;2023-06-14T12:20:29;26.40;40.30
55634;DHT22;41504;53.162;6.788;2023-06-14T12:22:58;26.50;39.90
55634;DHT22;41504;53.162;6.788;2023-06-14T12:28:04;26.80;39.80
55634;DHT22;41504;53.162;6.788;2023-06-14T12:30:32;26.80;39.10
55634;DHT22;41504;53.162;6.788;2023-06-14T12:32:58;26.80;39.60
55634;DHT22;41504;53.162;6.788;2023-06-14T12:35:24;26.90;39.30
55634;DHT22;41504;53.162;6.788;2023-06-14T12:37:53;27.00;39.20
55634;DHT22;41504;53.162;6.788;2023-06-14T12:40:19;27.00;38.90
55634;DHT22;41504;53.162;6.788;2023-06-14T12:42:45;26.90;38.60
55634;DHT22;41504;53.162;6.788;2023-06-14T12:45:13;26.80;39.00
55634;DHT22;41504;53.162;6.788;2023-06-14T12:47:39;26.70;39.00
55634;DHT22;41504;53.162;6.788;2023-06-14T12:50:05;26.80;38.90
55634;DHT22;41504;53.162;6.788;2023-06-14T12:52:32;26.80;39.00
55634;DHT22;41504;53.162;6.788;2023-06-14T12:55:10;26.70;39.00
55634;DHT22;41504;53.162;6.788;2023-06-14T12:57:35;26.60;39.10
55634;DHT22;41504;53.162;6.788;2023-06-14T13:00:02;26.60;39.00
55634;DHT22;41504;53.162;6.788;2023-06-14T13:02:28;26.50;38.90
55634;DHT22;41504;53.162;6.788;2023-06-14T13:04:54;26.60;39.30
55634;DHT22;41504;53.162;6.788;2023-06-14T13:07:20;26.70;39.20
55634;DHT22;41504;53.162;6.788;2023-06-14T13:09:46;26.80;39.00
55634;DHT22;41504;53.162;6.788;2023-06-14T13:12:12;27.00;38.70
55634;DHT22;41504;53.162;6.788;2023-06-14T13:14:41;27.10;38.30
55634;DHT22;41504;53.162;6.788;2023-06-14T13:17:13;27.10;38.30
55634;DHT22;41504;53.162;6.788;2023-06-14T13:19:42;27.20;38.30
55634;DHT22;41504;53.162;6.788;2023-06-14T13:22:10;27.30;38.20
55634;DHT22;41504;53.162;6.788;2023-06-14T13:24:37;27.40;38.00
55634;DHT22;41504;53.162;6.788;2023-06-14T13:27:03;27.40;37.80
55634;DHT22;41504;53.162;6.788;2023-06-14T13:29:29;27.50;37.90
55634;DHT22;41504;53.162;6.788;2023-06-14T13:31:56;27.60;37.90
55634;DHT22;41504;53.162;6.788;2023-06-14T13:34:25;27.60;37.90
55634;DHT22;41504;53.162;6.788;2023-06-14T13:36:50;27.70;38.00
55634;DHT22;41504;53.162;6.788;2023-06-14T13:39:16;27.70;37.50
55634;DHT22;41504;53.162;6.788;2023-06-14T13:41:42;27.50;37.50
55634;DHT22;41504;53.162;6.788;2023-06-14T13:44:07;27.40;37.90
55634;DHT22;41504;53.162;6.788;2023-06-14T13:46:34;27.40;37.60
55634;DHT22;41504;53.162;6.788;2023-06-14T13:49:00;27.30;37.60
55634;DHT22;41504;53.162;6.788;2023-06-14T13:51:26;27.10;37.90
55634;DHT22;41504;53.162;6.788;2023-06-14T13:53:53;26.90;38.00
55634;DHT22;41504;53.162;6.788;2023-06-14T13:56:20;26.80;38.20
55634;DHT22;41504;53.162;6.788;2023-06-14T13:58:51;26.80;38.10
55634;DHT22;41504;53.162;6.788;2023-06-14T14:01:17;26.90;37.80
55634;DHT22;41504;53.162;6.788;2023-06-14T14:03:54;27.00;38.00
55634;DHT22;41504;53.162;6.788;2023-06-14T14:06:20;27.10;37.90
55634;DHT22;41504;53.162;6.788;2023-06-14T14:08:46;27.20;37.60
55634;DHT22;41504;53.162;6.788;2023-06-14T14:11:11;27.30;37.60
55634;DHT22;41504;53.162;6.788;2023-06-14T14:13:41;27.50;37.60
55634;DHT22;41504;53.162;6.788;2023-06-14T14:16:12;27.70;37.50
55634;DHT22;41504;53.162;6.788;2023-06-14T14:18:43;27.70;37.50
55634;DHT22;41504;53.162;6.788;2023-06-14T14:21:11;27.50;37.40
55634;DHT22;41504;53.162;6.788;2023-06-14T14:23:37;27.20;37.60
55634;DHT22;41504;53.162;6.788;2023-06-14T14:26:03;27.00;37.80
55634;DHT22;41504;53.162;6.788;2023-06-14T14:28:30;26.80;38.00
55634;DHT22;41504;53.162;6.788;2023-06-14T14:30:56;26.70;38.20
55634;DHT22;41504;53.162;6.788;2023-06-14T14:33:22;26.70;38.10
55634;DHT22;41504;53.162;6.788;2023-06-14T14:35:53;26.60;38.10
55634;DHT22;41504;53.162;6.788;2023-06-14T14:38:19;26.60;38.30
55634;DHT22;41504;53.162;6.788;2023-06-14T14:40:45;26.70;38.30
55634;DHT22;41504;53.162;6.788;2023-06-14T14:43:11;26.80;38.00
55634;DHT22;41504;53.162;6.788;2023-06-14T14:45:37;26.80;37.60
55634;DHT22;41504;53.162;6.788;2023-06-14T14:48:03;26.80;37.60
55634;DHT22;41504;53.162;6.788;2023-06-14T14:50:29;26.90;37.60
55634;DHT22;41504;53.162;6.788;2023-06-14T14:52:55;27.10;37.80
55634;DHT22;41504;53.162;6.788;2023-06-14T14:55:22;27.40;37.60
55634;DHT22;41504;53.162;6.788;2023-06-14T14:57:48;27.70;37.40
55634;DHT22;41504;53.162;6.788;2023-06-14T15:00:14;27.90;37.20
55634;DHT22;41504;53.162;6.788;2023-06-14T15:02:40;28.00;37.00
55634;DHT22;41504;53.162;6.788;2023-06-14T15:05:09;28.00;36.70
55634;DHT22;41504;53.162;6.788;2023-06-14T15:07:35;28.10;36.80
55634;DHT22;41504;53.162;6.788;2023-06-14T15:10:01;28.00;36.50
55634;DHT22;41504;53.162;6.788;2023-06-14T15:12:27;27.90;36.50
55634;DHT22;41504;53.162;6.788;2023-06-14T15:14:53;27.80;36.80
55634;DHT22;41504;53.162;6.788;2023-06-14T15:17:20;27.90;36.80
55634;DHT22;41504;53.162;6.788;2023-06-14T15:19:46;27.90;36.60
55634;DHT22;41504;53.162;6.788;2023-06-14T15:22:13;28.00;36.90
55634;DHT22;41504;53.162;6.788;2023-06-14T15:24:41;28.10;36.30
55634;DHT22;41504;53.162;6.788;2023-06-14T15:27:07;28.30;36.30
55634;DHT22;41504;53.162;6.788;2023-06-14T15:29:43;28.40;36.10
55634;DHT22;41504;53.162;6.788;2023-06-14T15:32:10;28.50;36.00
55634;DHT22;41504;53.162;6.788;2023-06-14T15:34:36;28.60;36.30
55634;DHT22;41504;53.162;6.788;2023-06-14T15:37:08;28.80;36.00
55634;DHT22;41504;53.162;6.788;2023-06-14T15:39:34;28.90;35.80
55634;DHT22;41504;53.162;6.788;2023-06-14T15:42:00;29.00;35.90
55634;DHT22;41504;53.162;6.788;2023-06-14T15:44:26;29.00;35.60
55634;DHT22;41504;53.162;6.788;2023-06-14T15:46:52;29.10;35.70
55634;DHT22;41504;53.162;6.788;2023-06-14T15:49:18;29.00;35.70
55634;DHT22;41504;53.162;6.788;2023-06-14T15:51:44;28.90;35.40
55634;DHT22;41504;53.162;6.788;2023-06-14T15:54:10;28.80;35.20
55634;DHT22;41504;53.162;6.788;2023-06-14T15:56:36;28.60;35.30